Tiempo atmosférico en la estación meteorológica de Peraleda Del Zaucejo, Badajoz (542 m.)



Fecha
DESCASC
Temp. máxima en grados centígrados (hora)
DESCASC
Temp. mínima en grados centígrados (hora)
DESCASC
Temp. media en grados centígrados
DESCASC
Racha de viento máxima en m/sg (hora)
DESCASC
Velocidad máxima media en intervalos de 10 minutos(hora)
DESCASC
Precipitaciones diarias en mm
DESCASC
Precipitaciones de 00:00 a 06:00 en mm
DESCASC
Precipitaciones de 06:00 a 12:00 en mm
DESCASC
Precipitaciones de 12:00 a 18:00 en mm
DESCASC
Precipitaciones de 18:00 a 24:00 en mm
DESCASC
28-02-2021 15.5 (16:30) 2.6 (08:10) 9 5.83 (13:00) 3.33 (03:00) 0.6 0 0 0 0.6
27-02-2021 15.1 (17:00) 2.3 (08:00) 8.7 4.72 (16:20) 3.33 (14:00) 0.2 0 0 0.2 0
26-02-2021 16.3 (16:20) 6 (02:20) 11.1 5.56 (10:20) 3.89 (10:20) 0.2 0 0.2 0 0
25-02-2021 14.2 (15:20) 3.7 (00:00) 8.9 6.94 (01:20) 3.89 (01:10) 0 0 0 0 0
24-02-2021 16.7 (16:10) 0.7 (00:00) 8.7 10.28 (15:20) 6.67 (15:10) 0 0 0 0 0
23-02-2021 15.5 (16:50) -0.6 (-00:0) 7.4 7.5 (15:00) 4.44 (16:40) 0 0 0 0 0
22-02-2021 12.7 (17:20) 1.7 (00:00) 7.2 10.83 (03:30) 7.5 (04:40) 0 0 0 0 0
21-02-2021 12 (05:40) 6.1 (00:00) 9 11.94 (10:50) 7.5 (17:30) 5.8 0 3.8 2 0
20-02-2021 16 (18:00) 5.9 (00:00) 11 12.78 (16:00) 7.22 (10:00) 0 0 0 0 0
19-02-2021 18.1 (15:30) 1.7 (00:00) 9.9 9.44 (15:10) 5.83 (15:10) 0 0 0 0 0
18-02-2021 18.5 (16:00) 1.4 (00:00) 9.9 8.33 (13:10) 3.89 (21:50) 0 0 0 0 0
17-02-2021 20.6 (16:00) 1.6 (00:00) 11.1 5 (15:10) 2.78 (14:50) 0 0 0 0 0
16-02-2021 19.1 (17:30) 1.5 (00:00) 10.3 3.61 (13:50) 2.5 (20:30) 0 0 0 0 0
15-02-2021 17.1 (16:00) 1.7 (00:00) 9.4 8.89 (12:00) 5.83 (11:20) 0 0 0 0 0
14-02-2021 18.6 (16:30) 1.5 (00:00) 10.1 8.33 (23:10) 5.28 (23:10) 0 0 0 0 0
13-02-2021 17 (16:10) 3 (00:00) 10 5.56 (14:00) 3.33 (14:00) 0 0 0 0 0
12-02-2021 13.9 (17:50) 8.5 (00:00) 11.2 11.94 (06:40) 7.5 (06:30) 0.2 0 0.2 0 0
11-02-2021 14.5 (14:10) 10.5 (00:00) 12.5 7.78 (00:10) 4.44 (00:10) 0.6 0.4 0.2 0 0
10-02-2021 13.3 (17:10) 9.1 (00:00) 11.2 15.83 (06:10) 7.22 (06:10) 6.4 2.4 3 0 1
09-02-2021 10.9 (14:30) 7.5 (00:00) 9.2 17.78 (14:30) 9.17 (13:00) 13 0 0.2 9.2 3.6
08-02-2021 12.2 (15:40) 7.5 (00:00) 9.8 19.17 (05:10) 11.11 (16:20) 6.2 5.4 0.2 0.6 0
07-02-2021 8.9 (13:10) 5.6 (00:00) 7.2 12.22 (14:10) 8.33 (14:20) 0 0 0 0 0
06-02-2021 10.2 (15:50) 6.6 (00:00) 8.4 8.61 (17:20) 5.28 (17:30) 2.6 0.6 0.6 1.2 0.2
05-02-2021 12.7 (11:40) 7.8 (00:00) 10.3 9.17 (16:20) 5.56 (14:20) 6.4 0 0 5.4 1
04-02-2021 13.9 (14:50) 7.9 (00:00) 10.9 10.83 (13:40) 6.67 (13:40) 0 0 0 0 0
03-02-2021 13.8 (13:50) 8.8 (00:00) 11.3 8.06 (16:40) 5.28 (16:30) 0 0 0 0 0
02-02-2021 14.4 (16:40) 6.1 (00:00) 10.2 5.28 (16:40) 3.33 (16:40) 0.5 0 0.2 0.3 0
01-02-2021 13.7 (16:00) 6 (00:00) 9.8 16.11 (01:30) 10.56 (01:30) 0.2 0.2 0 0 0
31-01-2021 12.9 (17:30) 8 (00:00) 10.4 15.56 (05:40) 10 (05:20) 2.2 0 0.2 0.4 1.6
30-01-2021 12.8 (13:40) 8.4 (00:00) 10.6 14.44 (16:00) 9.72 (16:20) 1.2 0 1.2 0 0

Gráficas

Temp. máximas Temp. mínimas Temp. medias Precipitaciones Rachas de viento máximas Velocidades máximas media en intervalos de 10 minutos

Datos horarios

Fecha y hora oficial Temperatura (ºC) Velocidad del viento (km/h) Dirección del viento Racha (km/h) Dirección de racha Precipitación (mm) Presión (hPa) Tendencia (hPa) Humedad (%)
2021-02-28 23:00:00 5.6 2 Oeste 6 Oeste 0 -- -- 96
2021-02-28 22:00:00 7 3 Noroeste 5 Sudoeste 0 -- -- 95
2021-02-28 21:00:00 7.8 0 Calma 4 Oeste 0 -- -- 91
2021-02-28 20:00:00 10.8 0 Calma 9 Este 0.6 -- -- 90
2021-02-28 19:00:00 11.3 3 Oeste 4 Oeste 0 -- -- 85
2021-02-28 18:00:00 14.3 0 Calma 12 Este 0 -- -- 71
2021-02-28 17:00:00 15.5 2 Sudeste 12 Noroeste 0 -- -- 64
2021-02-28 16:00:00 14.5 5 Sudoeste 14 Sur 0 -- -- 68
2021-02-28 15:00:00 14.1 6 Sur 16 Sudoeste 0 -- -- 69
2021-02-28 14:00:00 14.1 5 Sudeste 17 Este 0 -- -- 69
2021-02-28 13:00:00 13.7 9 Sur 21 Sur 0 -- -- 72
2021-02-28 12:00:00 13.3 9 Sudeste 18 Sudeste 0 -- -- 73
2021-02-28 11:00:00 11.1 7 Este 12 Este 0 -- -- 86
2021-02-28 10:00:00 8.2 0 Calma 4 Norte 0 -- -- 99
2021-02-28 09:00:00 4.4 0 Calma 5 Noroeste 0 -- -- 100
2021-02-28 08:00:00 2.8 0 Calma 3 Noroeste 0 -- -- 98
2021-02-28 07:00:00 3.6 4 Oeste 8 Noroeste 0 -- -- 98
2021-02-28 06:00:00 4.6 0 Calma 10 Sur 0 -- -- 96
2021-02-28 05:00:00 6.4 5 Sur 10 Sur 0 -- -- 96
2021-02-28 04:00:00 7.4 5 Sur 15 Sudoeste 0 -- -- 96
2021-02-28 03:00:00 8 12 Sur 17 Sur 0 -- -- 98
2021-02-28 02:00:00 5.9 0 Calma 4 Nordeste 0 -- -- 91
2021-02-28 01:00:00 7.6 0 Calma 14 Sudoeste 0 -- -- 88
2021-02-28 00:00:00 6.5 2 Sur 6 Oeste 0 -- -- 90
2021-02-27 23:00:00 5.8 2 Norte 4 Noroeste 0 -- -- 93
2021-02-27 22:00:00 5.7 3 Noroeste 6 Noroeste 0 -- -- 90
2021-02-27 21:00:00 6.5 2 Oeste 4 Noroeste 0 -- -- 87
2021-02-27 20:00:00 8.5 0 Calma 4 Sudeste 0 -- -- 81
2021-02-27 19:00:00 12.5 4 Nordeste 14 Nordeste 0 -- -- 69
2021-02-27 18:00:00 13.7 10 Nordeste 17 Nordeste 0 -- -- 63
2021-02-27 17:00:00 15.1 10 Nordeste 17 Este 0 -- -- 58
2021-02-27 16:00:00 14.7 8 Nordeste 16 Este 0 -- -- 62
2021-02-27 15:00:00 14 7 Este 15 Este 0 -- -- 70
2021-02-27 14:00:00 13.4 12 Este 15 Este 0 -- -- 73
2021-02-27 13:00:00 13.6 3 Nordeste 10 Este 0.2 -- -- 71
2021-02-27 12:00:00 11.2 2 Nordeste 8 Nordeste 0 -- -- 80
2021-02-27 11:00:00 9 5 Este 9 Este 0 -- -- 89
2021-02-27 10:00:00 6.7 0 Calma 3 Nordeste 0 -- -- 99
2021-02-27 09:00:00 4.8 0 Calma 4 Oeste 0 -- -- 100
2021-02-27 08:00:00 2.3 0 Calma 4 Oeste 0 -- -- 98
2021-02-27 07:00:00 2.8 3 Oeste 5 Oeste 0 -- -- 99
2021-02-27 06:00:00 3.3 0 Calma 8 Noroeste 0 -- -- 97
2021-02-27 05:00:00 4 4 Noroeste 6 Noroeste 0 -- -- 96
2021-02-27 04:00:00 5.7 0 Calma 8 Sudeste 0 -- -- 97
2021-02-27 03:00:00 4.7 0 Calma 3 Sudeste 0 -- -- 94
2021-02-27 02:00:00 5.6 3 Noroeste 5 Oeste 0 -- -- 92
2021-02-27 01:00:00 6.4 0 Calma 6 Noroeste 0 -- -- 88
2021-02-27 00:00:00 8.1 5 Noroeste 8 Oeste 0 -- -- 91
2021-02-26 23:00:00 8.5 3 Noroeste 8 Noroeste 0 -- -- 87
2021-02-26 22:00:00 9.5 5 Noroeste 9 Oeste 0 -- -- 87
2021-02-26 21:00:00 9.6 0 Calma 7 Noroeste 0 -- -- 89
2021-02-26 20:00:00 10.7 4 Oeste 9 Noroeste 0 -- -- 86
2021-02-26 19:00:00 11.3 5 Noroeste 8 Oeste 0 -- -- 84
2021-02-26 18:00:00 13.8 6 Oeste 9 Oeste 0 -- -- 77
2021-02-26 17:00:00 16.1 3 Sudeste 8 Sudeste 0 -- -- 63
2021-02-26 16:00:00 15.9 2 Norte 9 Sur 0 -- -- 64
2021-02-26 15:00:00 14.9 0 Calma 8 Este 0 -- -- 62
2021-02-26 14:00:00 13.9 5 Sudeste 10 Nordeste 0 -- -- 66
2021-02-26 13:00:00 12.3 5 Nordeste 15 Este 0 -- -- 78
2021-02-26 12:00:00 10.9 8 Este 13 Este 0 -- -- 84
2021-02-26 11:00:00 9.2 5 Este 20 Este 0 -- -- 89
2021-02-26 10:00:00 8.8 6 Norte 11 Este 0 -- -- 92
2021-02-26 09:00:00 7.9 0 Calma 3 Nordeste 0 -- -- 97
2021-02-26 08:00:00 7.5 0 Calma 4 Oeste 0 -- -- 97
2021-02-26 07:00:00 7.4 0 Calma 5 Noroeste 0.2 -- -- 97
2021-02-26 06:00:00 7 2 Oeste 5 Este 0 -- -- 96
2021-02-26 05:00:00 7 3 Sudeste 5 Sudoeste 0 -- -- 98
2021-02-26 04:00:00 6.2 2 Sudeste 4 Sudeste 0 -- -- 97
2021-02-26 03:00:00 6.2 0 Calma 0 Calma 0 -- -- 97
2021-02-26 02:00:00 6.1 0 Calma 5 Oeste 0 -- -- 97
2021-02-26 01:00:00 6.4 3 Noroeste 5 Noroeste 0 -- -- 96
2021-02-26 00:00:00 6.8 2 Noroeste 3 Noroeste 0 -- -- 97
2021-02-25 23:00:00 6.6 0 Calma 5 Oeste 0 -- -- 96
2021-02-25 22:00:00 6.8 4 Noroeste 6 Noroeste 0 -- -- 94
2021-02-25 21:00:00 7.9 0 Calma 5 Sudeste 0 -- -- 90
2021-02-25 20:00:00 10.5 4 Sudeste 10 Este 0 -- -- 84
2021-02-25 19:00:00 12.1 4 Sudeste 13 Nordeste 0 -- -- 80
2021-02-25 18:00:00 13.6 8 Este 17 Este 0 -- -- 76
2021-02-25 17:00:00 13.9 10 Este 17 Este 0 -- -- 75
2021-02-25 16:00:00 14.1 10 Nordeste 15 Nordeste 0 -- -- 75
2021-02-25 15:00:00 14.1 8 Este 13 Este 0 -- -- 73
2021-02-25 14:00:00 13.2 4 Este 9 Este 0 -- -- 75
2021-02-25 13:00:00 12.2 4 Este 8 Este 0 -- -- 78
2021-02-25 12:00:00 11.1 0 Calma 5 Este 0 -- -- 83
2021-02-25 11:00:00 9.7 2 Nordeste 4 Norte 0 -- -- 87
2021-02-25 10:00:00 8.1 3 Noroeste 4 Noroeste 0 -- -- 99
2021-02-25 09:00:00 6.2 0 Calma 2 Noroeste 0 -- -- 99
2021-02-25 08:00:00 4.6 0 Calma 3 Noroeste 0 -- -- 98
2021-02-25 07:00:00 4.2 3 Oeste 5 Oeste 0 -- -- 96
2021-02-25 06:00:00 4.8 4 Noroeste 6 Noroeste 0 -- -- 96
2021-02-25 05:00:00 5.4 4 Oeste 6 Oeste 0 -- -- 94
2021-02-25 04:00:00 7.7 2 Norte 11 Sudeste 0 -- -- 89
2021-02-25 03:00:00 8.7 5 Sudeste 15 Sudeste 0 -- -- 89
2021-02-25 02:00:00 9.1 11 Sudeste 25 Sur 0 -- -- 88
2021-02-25 01:00:00 8.3 13 Sur 21 Sur 0 -- -- 92
2021-02-25 00:00:00 6.1 2 Noroeste 6 Noroeste 0 -- -- 96
2021-02-24 23:00:00 6.3 0 Calma 5 Noroeste 0 -- -- 94
2021-02-24 22:00:00 7.9 2 Noroeste 14 Sur 0 -- -- 87
2021-02-24 21:00:00 10.5 11 Sur 17 Sur 0 -- -- 86
2021-02-24 20:00:00 12.3 8 Sudeste 17 Sur 0 -- -- 77
2021-02-24 19:00:00 13.9 9 Sudeste 17 Sudeste 0 -- -- 70
2021-02-24 18:00:00 15.5 13 Sudeste 26 Sur 0 -- -- 62
2021-02-24 17:00:00 16.3 16 Sur 27 Sur 0 -- -- 60
2021-02-24 16:00:00 16.6 17 Sur 37 Sudeste 0 -- -- 56
2021-02-24 15:00:00 16.6 20 Sudeste 34 Sudeste 0 -- -- 53
2021-02-24 14:00:00 16.5 19 Sur 30 Sudeste 0 -- -- 55
2021-02-24 13:00:00 15.4 17 Sudeste 32 Sudeste 0 -- -- 56
2021-02-24 12:00:00 13.7 22 Sudeste 33 Sudeste 0 -- -- 60
2021-02-24 11:00:00 10.8 11 Este 16 Este 0 -- -- 78
2021-02-24 10:00:00 6.6 0 Calma 5 Sudeste 0 -- -- 90
2021-02-24 09:00:00 3 3 Oeste 5 Oeste 0 -- -- 100
2021-02-24 08:00:00 0.8 0 Calma 4 Oeste 0 -- -- 98
2021-02-24 07:00:00 1.1 0 Calma 6 Noroeste 0 -- -- 97
2021-02-24 06:00:00 0.9 2 Noroeste 4 Noroeste 0 -- -- 96
2021-02-24 05:00:00 1.7 0 Calma 3 Noroeste 0 -- -- 97
2021-02-24 04:00:00 1.8 2 Oeste 5 Noroeste 0 -- -- 97
2021-02-24 03:00:00 1.6 0 Calma 4 Noroeste 0 -- -- 94
2021-02-24 02:00:00 2.3 0 Calma 5 Noroeste 0 -- -- 95
2021-02-24 01:00:00 2.9 2 Este 4 Este 0 -- -- 93
2021-02-24 00:00:00 3.1 3 Noroeste 5 Noroeste 0 -- -- 90
2021-02-23 23:00:00 3 0 Calma 3 Noroeste 0 -- -- 91
2021-02-23 22:00:00 5.1 0 Calma 8 Nordeste 0 -- -- 81
2021-02-23 21:00:00 7.2 3 Noroeste 15 Sur 0 -- -- 76
2021-02-23 20:00:00 9.8 10 Sur 16 Sur 0 -- -- 66
2021-02-23 19:00:00 12.8 8 Sudeste 19 Sudeste 0 -- -- 55
2021-02-23 18:00:00 15.1 9 Sudeste 21 Este 0 -- -- 51
2021-02-23 17:00:00 15.5 8 Este 23 Este 0 -- -- 51
2021-02-23 16:00:00 15.2 9 Este 23 Este 0 -- -- 49
2021-02-23 15:00:00 14.9 14 Sudeste 27 Este 0 -- -- 52
2021-02-23 14:00:00 13.9 12 Este 20 Este 0 -- -- 59
2021-02-23 13:00:00 12.7 11 Este 21 Este 0 -- -- 65
2021-02-23 12:00:00 11.5 8 Este 15 Este 0 -- -- 68
2021-02-23 11:00:00 8.7 6 Este 10 Este 0 -- -- 78
2021-02-23 10:00:00 5.6 0 Calma 3 Nordeste 0 -- -- 93
2021-02-23 09:00:00 1.3 0 Calma 4 Oeste 0 -- -- 100
2021-02-23 08:00:00 -0.5 0 Calma 2 Oeste 0 -- -- 98
2021-02-23 07:00:00 -0.3 2 Oeste 3 Oeste 0 -- -- 98
2021-02-23 06:00:00 0.2 0 Calma 5 Noroeste 0 -- -- 98
2021-02-23 05:00:00 0.4 3 Oeste 4 Oeste 0 -- -- 97
2021-02-23 04:00:00 0.5 0 Calma 4 Noroeste 0 -- -- 97
2021-02-23 03:00:00 0.6 0 Calma 3 Noroeste 0 -- -- 97
2021-02-23 02:00:00 1.2 0 Calma 5 Noroeste 0 -- -- 96
2021-02-23 01:00:00 1.9 2 Oeste 4 Noroeste 0 -- -- 95
2021-02-23 00:00:00 1.7 0 Calma 5 Oeste 0 -- -- 95
2021-02-22 23:00:00 2 3 Noroeste 5 Noroeste 0 -- -- 95
2021-02-22 22:00:00 2.6 0 Calma 3 Nordeste 0 -- -- 93
2021-02-22 21:00:00 4 0 Calma 4 Oeste 0 -- -- 90
2021-02-22 20:00:00 6 0 Calma 8 Oeste 0 -- -- 82
2021-02-22 19:00:00 7.6 7 Oeste 10 Oeste 0 -- -- 78
2021-02-22 18:00:00 11.2 10 Noroeste 22 Noroeste 0 -- -- 63
2021-02-22 17:00:00 12.5 14 Noroeste 27 Oeste 0 -- -- 56
2021-02-22 16:00:00 11.8 16 Oeste 26 Oeste 0 -- -- 60
2021-02-22 15:00:00 11.9 15 Oeste 27 Noroeste 0 -- -- 59
2021-02-22 14:00:00 11.1 20 Noroeste 32 Noroeste 0 -- -- 58
2021-02-22 13:00:00 10.3 21 Oeste 35 Oeste 0 -- -- 64
2021-02-22 12:00:00 9.5 17 Noroeste 29 Oeste 0 -- -- 62
2021-02-22 11:00:00 8.5 15 Oeste 25 Oeste 0 -- -- 80
2021-02-22 10:00:00 6.7 15 Oeste 24 Oeste 0 -- -- 88
2021-02-22 09:00:00 4.8 13 Oeste 24 Sudoeste 0 -- -- 92
2021-02-22 08:00:00 3.3 11 Sudoeste 23 Oeste 0 -- -- 93
2021-02-22 07:00:00 5.3 8 Noroeste 31 Oeste 0 -- -- 84
2021-02-22 06:00:00 5.2 20 Oeste 35 Oeste 0 -- -- 89
2021-02-22 05:00:00 5 23 Oeste 37 Oeste 0 -- -- 92
2021-02-22 04:00:00 5.2 23 Oeste 39 Oeste 0 -- -- 92
2021-02-22 03:00:00 5.1 25 Oeste 36 Oeste 0 -- -- 91
2021-02-22 02:00:00 5.2 19 Oeste 33 Oeste 0 -- -- 91
2021-02-22 01:00:00 5.7 19 Oeste 36 Oeste 0 -- -- 87
2021-02-22 00:00:00 6.4 22 Oeste 39 Oeste 0 -- -- 86
2021-02-21 23:00:00 6.7 23 Oeste 37 Oeste 0 -- -- 85
2021-02-21 22:00:00 6.7 23 Oeste 33 Oeste 0 -- -- 89
2021-02-21 21:00:00 6.9 15 Oeste 28 Oeste 0 -- -- 88
2021-02-21 20:00:00 7 14 Oeste 27 Oeste 0 -- -- 89
2021-02-21 19:00:00 7.4 13 Oeste 29 Oeste 0 -- -- 92
2021-02-21 18:00:00 7.2 24 Oeste 40 Noroeste 0.4 -- -- 90
2021-02-21 17:00:00 7.1 21 Oeste 40 Oeste 0.2 -- -- 94
2021-02-21 16:00:00 7 18 Noroeste 30 Oeste 0.4 -- -- 93
2021-02-21 15:00:00 7.9 11 Oeste 18 Oeste 0.6 -- -- 93
2021-02-21 14:00:00 8 13 Oeste 19 Noroeste 0.4 -- -- 89
2021-02-21 13:00:00 8.5 10 Noroeste 21 Oeste 0 -- -- 88
2021-02-21 12:00:00 7.3 16 Noroeste 36 Oeste 1 -- -- 92
2021-02-21 11:00:00 7.2 27 Oeste 43 Sudoeste 2.8 -- -- 91
2021-02-21 10:00:00 11 10 Sur 27 Sur 0 -- -- 82
2021-02-21 09:00:00 11.2 15 Sudeste 30 Sur 0 -- -- 79
2021-02-21 08:00:00 11.5 19 Sur 33 Sudeste 0 -- -- 74
2021-02-21 07:00:00 11.4 13 Sudeste 33 Sur 0 -- -- 73
2021-02-21 06:00:00 11.8 15 Sur 42 Sudeste 0 -- -- 72
2021-02-21 05:00:00 11.4 14 Sur 33 Sudeste 0 -- -- 69
2021-02-21 04:00:00 11.1 15 Sudeste 32 Sudeste 0 -- -- 68
2021-02-21 03:00:00 11.6 18 Sudeste 30 Sudeste 0 -- -- 64
2021-02-21 02:00:00 10.9 14 Sudeste 24 Sudeste 0 -- -- 65
2021-02-21 01:00:00 10.3 12 Sudeste 24 Sudeste 0 -- -- 67
2021-02-21 00:00:00 11.9 15 Sudeste 32 Sudeste 0 -- -- 60
2021-02-20 23:00:00 12.2 18 Sudeste 30 Sudeste 0 -- -- 59
2021-02-20 22:00:00 11.3 14 Sudeste 26 Este 0 -- -- 70
2021-02-20 21:00:00 13 13 Sudeste 28 Sudeste 0 -- -- 61
2021-02-20 20:00:00 13.3 13 Sudeste 24 Sur 0 -- -- 52
2021-02-20 19:00:00 14.4 9 Sudeste 22 Sudeste 0 -- -- 41
2021-02-20 18:00:00 16 14 Sudeste 26 Sur 0 -- -- 40
2021-02-20 17:00:00 15.5 12 Sur 35 Sur 0 -- -- 49
2021-02-20 16:00:00 15.5 24 Sur 46 Sur 0 -- -- 38
2021-02-20 15:00:00 15.5 14 Sur 37 Sur 0 -- -- 46
2021-02-20 14:00:00 15.3 24 Sur 41 Sur 0 -- -- 43
2021-02-20 13:00:00 14.1 12 Sudeste 31 Sudeste 0 -- -- 58
2021-02-20 12:00:00 13.3 17 Sur 36 Sur 0 -- -- 60
2021-02-20 11:00:00 12.9 20 Sur 45 Sur 0 -- -- 61
2021-02-20 10:00:00 11.7 26 Sur 42 Sur 0 -- -- 68
2021-02-20 09:00:00 9.8 15 Sudeste 31 Sur 0 -- -- 78
2021-02-20 08:00:00 9.1 12 Sudeste 28 Sudeste 0 -- -- 86
2021-02-20 07:00:00 9.7 12 Sudeste 31 Sudeste 0 -- -- 86
2021-02-20 06:00:00 9.7 16 Sudeste 28 Sur 0 -- -- 88
2021-02-20 05:00:00 9.3 16 Sur 31 Sur 0 -- -- 95
2021-02-20 04:00:00 9.6 13 Sudeste 24 Sudeste 0 -- -- 95
2021-02-20 03:00:00 7.7 7 Sur 14 Sur 0 -- -- 100
2021-02-20 02:00:00 7.7 2 Sudeste 10 Sudeste 0 -- -- 92
2021-02-20 01:00:00 9 6 Sudeste 13 Sudeste 0 -- -- 91
2021-02-20 00:00:00 8.8 8 Sudeste 13 Sudeste 0 -- -- 94
2021-02-19 23:00:00 10.4 8 Sudeste 15 Sudeste 0 -- -- 85
2021-02-19 22:00:00 10.9 9 Sudeste 21 Sur 0 -- -- 78
2021-02-19 21:00:00 11.8 14 Sur 27 Sur 0 -- -- 76
2021-02-19 20:00:00 12.3 12 Sur 22 Sur 0 -- -- 71
2021-02-19 19:00:00 13.2 6 Sur 23 Sudoeste 0 -- -- 67
2021-02-19 18:00:00 15.5 17 Sudoeste 31 Sudoeste 0 -- -- 54
2021-02-19 17:00:00 16.3 15 Sudoeste 30 Sudoeste 0 -- -- 51
2021-02-19 16:00:00 18 18 Sur 34 Sur 0 -- -- 47
2021-02-19 15:00:00 17.8 19 Sur 32 Sur 0 -- -- 50
2021-02-19 14:00:00 17 18 Sur 32 Sudoeste 0 -- -- 51
2021-02-19 13:00:00 16.1 14 Sur 27 Sur 0 -- -- 56
2021-02-19 12:00:00 15.1 14 Sur 23 Sur 0 -- -- 61
2021-02-19 11:00:00 11.7 4 Este 8 Este 0 -- -- 85
2021-02-19 10:00:00 8.1 2 Este 4 Este 0 -- -- 99
2021-02-19 09:00:00 4 0 Calma 4 Noroeste 0 -- -- 100
2021-02-19 08:00:00 1.9 0 Calma 5 Oeste 0 -- -- 99
2021-02-19 07:00:00 2.3 2 Noroeste 4 Noroeste 0 -- -- 100
2021-02-19 06:00:00 2.3 0 Calma 3 Noroeste 0 -- -- 99
2021-02-19 05:00:00 2.6 0 Calma 6 Noroeste 0 -- -- 98
2021-02-19 04:00:00 3.8 4 Noroeste 6 Noroeste 0 -- -- 99
2021-02-19 03:00:00 3.9 3 Noroeste 4 Noroeste 0 -- -- 97
2021-02-19 02:00:00 4.4 0 Calma 3 Oeste 0 -- -- 96
2021-02-19 01:00:00 6.2 0 Calma 5 Noroeste 0 -- -- 94
2021-02-19 00:00:00 8 0 Calma 3 Sur 0 -- -- 96
2021-02-18 23:00:00 9.3 0 Calma 14 Sudoeste 0 -- -- 93
2021-02-18 22:00:00 9.5 13 Sudoeste 15 Sudoeste 0 -- -- 91
2021-02-18 21:00:00 9.4 8 Sudoeste 18 Sudoeste 0 -- -- 86
2021-02-18 20:00:00 11.7 7 Sudoeste 14 Sudoeste 0 -- -- 69
2021-02-18 19:00:00 11.2 8 Oeste 9 Sudoeste 0 -- -- 71
2021-02-18 18:00:00 17 6 Oeste 14 Oeste 0 -- -- 46
2021-02-18 17:00:00 18.5 4 Oeste 18 Sudoeste 0 -- -- 38
2021-02-18 16:00:00 18.5 8 Sudoeste 20 Sudoeste 0 -- -- 38
2021-02-18 15:00:00 18.1 7 Sudoeste 20 Sudoeste 0 -- -- 38
2021-02-18 14:00:00 17.4 8 Sudoeste 30 Sudoeste 0 -- -- 45
2021-02-18 13:00:00 16.7 9 Sudoeste 28 Sudoeste 0 -- -- 49
2021-02-18 12:00:00 14.7 6 Sudoeste 10 Sudoeste 0 -- -- 58
2021-02-18 11:00:00 11.6 0 Calma 9 Sudoeste 0 -- -- 74
2021-02-18 10:00:00 7.4 0 Calma 2 Noroeste 0 -- -- 92
2021-02-18 09:00:00 3.4 0 Calma 5 Noroeste 0 -- -- 99
2021-02-18 08:00:00 1.4 2 Noroeste 6 Oeste 0 -- -- 96
2021-02-18 07:00:00 1.8 3 Noroeste 5 Noroeste 0 -- -- 97
2021-02-18 06:00:00 2.6 0 Calma 4 Oeste 0 -- -- 98
2021-02-18 05:00:00 2.3 3 Noroeste 5 Noroeste 0 -- -- 96
2021-02-18 04:00:00 2.6 0 Calma 2 Sudeste 0 -- -- 93
2021-02-18 03:00:00 4.1 0 Calma 4 Este 0 -- -- 92
2021-02-18 02:00:00 5.8 0 Calma 5 Sudeste 0 -- -- 92
2021-02-18 01:00:00 6.1 2 Este 5 Nordeste 0 -- -- 92
2021-02-18 00:00:00 6.8 0 Calma 9 Oeste 0 -- -- 92
2021-02-17 23:00:00 6.6 5 Oeste 8 Noroeste 0 -- -- 89
2021-02-17 22:00:00 7.6 0 Calma 5 Noroeste 0 -- -- 84
2021-02-17 21:00:00 8.9 5 Noroeste 6 Noroeste 0 -- -- 83
2021-02-17 20:00:00 9.8 5 Noroeste 8 Sudoeste 0 -- -- 79
2021-02-17 19:00:00 12.2 6 Oeste 8 Sudoeste 0 -- -- 71
2021-02-17 18:00:00 19.5 4 Sudoeste 8 Sudoeste 0 -- -- 55
2021-02-17 17:00:00 20.4 5 Sur 15 Sudoeste 0 -- -- 45
2021-02-17 16:00:00 20.6 6 Sudoeste 18 Sur 0 -- -- 43
2021-02-17 15:00:00 19.8 8 Sur 16 Sudoeste 0 -- -- 43
2021-02-17 14:00:00 18.8 6 Sudoeste 11 Sudeste 0 -- -- 44
2021-02-17 13:00:00 15.7 4 Nordeste 7 Este 0 -- -- 72
2021-02-17 12:00:00 13.2 4 Este 8 Sudeste 0 -- -- 76
2021-02-17 11:00:00 10.6 3 Este 5 Este 0 -- -- 86
2021-02-17 10:00:00 7.8 0 Calma 3 Este 0 -- -- 100
2021-02-17 09:00:00 3.3 3 Noroeste 4 Noroeste 0 -- -- 100
2021-02-17 08:00:00 1.8 0 Calma 2 Oeste 0 -- -- 99
2021-02-17 07:00:00 2.6 0 Calma 4 Noroeste 0 -- -- 98
2021-02-17 06:00:00 2.6 3 Oeste 5 Noroeste 0 -- -- 98
2021-02-17 05:00:00 3.1 4 Oeste 5 Noroeste 0 -- -- 97
2021-02-17 04:00:00 4.8 2 Oeste 5 Noroeste 0 -- -- 100
2021-02-17 03:00:00 3.9 0 Calma 3 Sudeste 0 -- -- 95
2021-02-17 02:00:00 5.5 0 Calma 3 Sudeste 0 -- -- 95
2021-02-17 01:00:00 5.6 0 Calma 5 Noroeste 0 -- -- 92
2021-02-17 00:00:00 7.2 5 Noroeste 6 Noroeste 0 -- -- 94
2021-02-16 23:00:00 8.8 3 Oeste 7 Oeste 0 -- -- 85
2021-02-16 22:00:00 9.5 0 Calma 8 Noroeste 0 -- -- 87
2021-02-16 21:00:00 9.3 3 Noroeste 12 Sur 0 -- -- 90
2021-02-16 20:00:00 9.4 6 Sur 13 Sur 0 -- -- 88
2021-02-16 19:00:00 11.9 0 Calma 4 Oeste 0 -- -- 76
2021-02-16 18:00:00 18.6 0 Calma 6 Este 0 -- -- 59
2021-02-16 17:00:00 18.9 0 Calma 12 Oeste 0 -- -- 51
2021-02-16 16:00:00 18.4 5 Sur 13 Sudoeste 0 -- -- 51
2021-02-16 15:00:00 17.9 6 Sur 13 Sudoeste 0 -- -- 53
2021-02-16 14:00:00 17.2 3 Sudeste 13 Sur 0 -- -- 52
2021-02-16 13:00:00 15.1 3 Nordeste 12 Nordeste 0 -- -- 66
2021-02-16 12:00:00 13.1 3 Nordeste 8 Este 0 -- -- 68
2021-02-16 11:00:00 10.8 4 Este 6 Este 0 -- -- 72
2021-02-16 10:00:00 8.2 0 Calma 6 Noroeste 0 -- -- 85
2021-02-16 09:00:00 3.7 3 Noroeste 7 Noroeste 0 -- -- 98
2021-02-16 08:00:00 1.7 2 Noroeste 5 Oeste 0 -- -- 96
2021-02-16 07:00:00 2.1 2 Oeste 5 Oeste 0 -- -- 97
2021-02-16 06:00:00 2.3 4 Oeste 6 Oeste 0 -- -- 96
2021-02-16 05:00:00 1.9 2 Noroeste 5 Noroeste 0 -- -- 95
2021-02-16 04:00:00 2.5 2 Noroeste 5 Noroeste 0 -- -- 96
2021-02-16 03:00:00 2.5 3 Noroeste 5 Noroeste 0 -- -- 96
2021-02-16 02:00:00 3 0 Calma 6 Noroeste 0 -- -- 94
2021-02-16 01:00:00 2.8 0 Calma 4 Noroeste 0 -- -- 93
2021-02-16 00:00:00 3.6 0 Calma 4 Noroeste 0 -- -- 92
2021-02-15 23:00:00 4.5 2 Oeste 6 Noroeste 0 -- -- 90
2021-02-15 22:00:00 5.6 3 Noroeste 8 Sudeste 0 -- -- 90
2021-02-15 21:00:00 7.8 0 Calma 5 Nordeste 0 -- -- 87
2021-02-15 20:00:00 10.9 5 Sudeste 12 Sudeste 0 -- -- 78
2021-02-15 19:00:00 12.5 3 Sudeste 15 Sudeste 0 -- -- 72
2021-02-15 18:00:00 15.8 10 Sudeste 23 Sur 0 -- -- 61
2021-02-15 17:00:00 16.8 15 Sudeste 25 Sudeste 0 -- -- 54
2021-02-15 16:00:00 17.1 14 Sudeste 28 Sudeste 0 -- -- 53
2021-02-15 15:00:00 17 17 Sudeste 28 Sudeste 0 -- -- 49
2021-02-15 14:00:00 16.1 18 Sudeste 31 Sudeste 0 -- -- 56
2021-02-15 13:00:00 15.2 19 Sudeste 30 Este 0 -- -- 57
2021-02-15 12:00:00 13.8 19 Sudeste 32 Este 0 -- -- 60
2021-02-15 11:00:00 11.6 10 Este 18 Este 0 -- -- 76
2021-02-15 10:00:00 8 2 Norte 4 Norte 0 -- -- 92
2021-02-15 09:00:00 3.2 0 Calma 6 Noroeste 0 -- -- 98
2021-02-15 08:00:00 2.1 4 Noroeste 5 Noroeste 0 -- -- 98
2021-02-15 07:00:00 1.9 0 Calma 5 Noroeste 0 -- -- 96
2021-02-15 06:00:00 2 2 Noroeste 5 Noroeste 0 -- -- 94
2021-02-15 05:00:00 3.2 2 Noroeste 5 Noroeste 0 -- -- 95
2021-02-15 04:00:00 3.8 0 Calma 7 Noroeste 0 -- -- 90
2021-02-15 03:00:00 4.3 4 Oeste 9 Noroeste 0 -- -- 92
2021-02-15 02:00:00 3.6 3 Noroeste 6 Noroeste 0 -- -- 92
2021-02-15 01:00:00 5 0 Calma 4 Noroeste 0 -- -- 86
2021-02-15 00:00:00 9.2 3 Norte 30 Sur 0 -- -- 72
2021-02-14 23:00:00 11 15 Sur 23 Sur 0 -- -- 63
2021-02-14 22:00:00 10.3 11 Sur 18 Sur 0 -- -- 71
2021-02-14 21:00:00 9.4 0 Calma 12 Sudeste 0 -- -- 76
2021-02-14 20:00:00 10.5 9 Sur 14 Sur 0 -- -- 72
2021-02-14 19:00:00 15.2 10 Sudeste 17 Sudeste 0 -- -- 58
2021-02-14 18:00:00 17.9 8 Este 13 Sudeste 0 -- -- 58
2021-02-14 17:00:00 18.6 8 Sudeste 15 Este 0 -- -- 42
2021-02-14 16:00:00 18.3 9 Este 18 Este 0 -- -- 48
2021-02-14 15:00:00 18 9 Sudeste 16 Sudeste 0 -- -- 51
2021-02-14 14:00:00 17.1 6 Sudeste 13 Sudeste 0 -- -- 57
2021-02-14 13:00:00 15.5 5 Este 13 Este 0 -- -- 63
2021-02-14 12:00:00 13.5 6 Nordeste 14 Nordeste 0 -- -- 71
2021-02-14 11:00:00 10.9 4 Nordeste 9 Nordeste 0 -- -- 77
2021-02-14 10:00:00 7.6 0 Calma 4 Este 0 -- -- 91
2021-02-14 09:00:00 2.9 2 Noroeste 3 Noroeste 0 -- -- 99
2021-02-14 08:00:00 2.7 0 Calma 4 Oeste 0 -- -- 99
2021-02-14 07:00:00 2.2 4 Noroeste 5 Noroeste 0 -- -- 98
2021-02-14 06:00:00 1.8 0 Calma 4 Noroeste 0 -- -- 97
2021-02-14 05:00:00 1.8 0 Calma 3 Oeste 0 -- -- 97
2021-02-14 04:00:00 2.4 0 Calma 3 Noroeste 0 -- -- 97
2021-02-14 03:00:00 2.8 0 Calma 3 Noroeste 0 -- -- 95
2021-02-14 02:00:00 3 2 Oeste 5 Oeste 0 -- -- 95
2021-02-14 01:00:00 3.5 0 Calma 3 Este 0 -- -- 93
2021-02-14 00:00:00 4.6 0 Calma 6 Noroeste 0 -- -- 92
2021-02-13 23:00:00 4.9 0 Calma 4 Noroeste 0 -- -- 93
2021-02-13 22:00:00 5.7 0 Calma 9 Este 0 -- -- 88
2021-02-13 21:00:00 7.3 4 Oeste 6 Oeste 0 -- -- 81
2021-02-13 20:00:00 8.4 2 Sudoeste 8 Noroeste 0 -- -- 81
2021-02-13 19:00:00 9.7 6 Noroeste 8 Oeste 0 -- -- 81
2021-02-13 18:00:00 15.2 7 Oeste 12 Norte 0 -- -- 66
2021-02-13 17:00:00 16.9 6 Norte 14 Norte 0 -- -- 56
2021-02-13 16:00:00 16.9 6 Noroeste 18 Oeste 0 -- -- 52
2021-02-13 15:00:00 16.1 9 Oeste 16 Oeste 0 -- -- 59
2021-02-13 14:00:00 14.9 12 Oeste 20 Sudoeste 0 -- -- 71
2021-02-13 13:00:00 14.2 2 Sudeste 10 Sudoeste 0 -- -- 73
2021-02-13 08:00:00 -- -- -- -- -- -- -- -- --
2021-02-13 07:00:00 -- -- -- -- -- -- -- -- --
2021-02-13 06:00:00 -- -- -- -- -- -- -- -- --
2021-02-13 05:00:00 -- -- -- -- -- -- -- -- --
2021-02-13 04:00:00 4.9 5 Sudoeste 9 Sudoeste 0 -- -- 98
2021-02-13 03:00:00 6.2 0 Calma 13 Noroeste 0 -- -- 91
2021-02-13 02:00:00 9.4 8 Noroeste 14 Noroeste 0 -- -- 82
2021-02-13 01:00:00 8.9 5 Sudoeste 12 Sudoeste 0 -- -- 86
2021-02-13 00:00:00 8.8 7 Sudoeste 11 Sudoeste 0 -- -- 88
2021-02-12 23:00:00 9.2 9 Noroeste 18 Oeste 0 -- -- 86
2021-02-12 22:00:00 9.2 7 Noroeste 17 Oeste 0 -- -- 88
2021-02-12 21:00:00 9.6 10 Noroeste 22 Noroeste 0 -- -- 85
2021-02-12 20:00:00 10.3 19 Oeste 26 Oeste 0 -- -- 85
2021-02-12 19:00:00 10 6 Noroeste 15 Oeste 0 -- -- 86
2021-02-12 18:00:00 13.6 10 Noroeste 18 Oeste 0 -- -- 73
2021-02-12 17:00:00 13.3 9 Oeste 21 Noroeste 0 -- -- 74
2021-02-12 16:00:00 13.3 12 Noroeste 21 Noroeste 0 -- -- 71
2021-02-12 15:00:00 13.5 13 Noroeste 26 Oeste 0 -- -- 72
2021-02-12 14:00:00 13 15 Noroeste 36 Noroeste 0 -- -- 75
2021-02-12 13:00:00 12.1 14 Noroeste 30 Oeste 0 -- -- 78
2021-02-12 12:00:00 11.6 17 Oeste 30 Oeste 0 -- -- 79
2021-02-12 11:00:00 10.5 18 Oeste 27 Oeste 0 -- -- 88
2021-02-12 10:00:00 9.9 17 Oeste 35 Noroeste 0 -- -- 90
2021-02-12 09:00:00 9.5 17 Oeste 35 Oeste 0 -- -- 92
2021-02-12 08:00:00 9.6 18 Noroeste 28 Oeste 0 -- -- 90
2021-02-12 07:00:00 10.3 16 Oeste 43 Noroeste 0.2 -- -- 93
2021-02-12 06:00:00 11.5 9 Sudoeste 21 Oeste 0 -- -- 96
2021-02-12 05:00:00 11 6 Sudoeste 17 Sur 0 -- -- 97
2021-02-12 04:00:00 10.7 12 Sur 19 Sur 0 -- -- 97
2021-02-12 03:00:00 10.8 9 Sudoeste 21 Sudoeste 0 -- -- 97
2021-02-12 02:00:00 10.8 12 Sudoeste 17 Sudoeste 0 -- -- 98
2021-02-12 01:00:00 11.2 12 Sudoeste 17 Sudoeste 0 -- -- 98
2021-02-12 00:00:00 11.4 3 Sur 18 Sur 0 -- -- 97
2021-02-11 23:00:00 11.4 3 Este 6 Sudoeste 0 -- -- 97
2021-02-11 22:00:00 11.8 3 Oeste 12 Sur 0 -- -- 95
2021-02-11 21:00:00 12.5 6 Sudeste 10 Sur 0 -- -- 95
2021-02-11 20:00:00 12.9 4 Sur 10 Sudoeste 0 -- -- 94
2021-02-11 19:00:00 13.1 0 Calma 8 Sudoeste 0 -- -- 93
2021-02-11 18:00:00 13.3 4 Sur 15 Sur 0 -- -- 94
2021-02-11 17:00:00 13.4 10 Sudoeste 23 Sudoeste 0 -- -- 94
2021-02-11 16:00:00 14.4 13 Sudoeste 19 Sudoeste 0 -- -- 88
2021-02-11 15:00:00 14 9 Sudoeste 22 Sur 0 -- -- 88
2021-02-11 14:00:00 14.4 12 Sur 17 Sur 0 -- -- 85
2021-02-11 13:00:00 14 11 Sudoeste 18 Sur 0 -- -- 89
2021-02-11 12:00:00 13.1 5 Sur 15 Sur 0 -- -- 91
2021-02-11 11:00:00 11.8 10 Sur 14 Sur 0 -- -- 98
2021-02-11 10:00:00 11.1 6 Sudoeste 12 Sudoeste 0 -- -- 99
2021-02-11 09:00:00 10.8 3 Sudoeste 15 Sudoeste 0 -- -- 99
2021-02-11 08:00:00 10.6 6 Sudoeste 17 Sudoeste 0.2 -- -- 99
2021-02-11 07:00:00 10.8 12 Sudoeste 18 Sudoeste 0 -- -- 97
2021-02-11 06:00:00 11.2 7 Sudoeste 18 Oeste 0 -- -- 98
2021-02-11 05:00:00 11.1 14 Sudoeste 23 Sudoeste 0 -- -- 97
2021-02-11 04:00:00 11.9 4 Oeste 19 Oeste 0.2 -- -- 98
2021-02-11 03:00:00 12.1 5 Oeste 14 Oeste -- -- -- 98
2021-02-11 02:00:00 12.1 4 Sudoeste 19 Oeste 0 -- -- 97
2021-02-11 01:00:00 12.5 6 Oeste 28 Oeste 0 -- -- 96
2021-02-11 00:00:00 12.4 9 Oeste 26 Oeste 1 -- -- 99
2021-02-10 23:00:00 12.1 4 Sur 7 Sudoeste 0 -- -- 99
2021-02-10 22:00:00 11.8 3 Sur 4 Oeste 0 -- -- 98
2021-02-10 21:00:00 11.8 0 Calma 9 Oeste 0 -- -- 98
2021-02-10 20:00:00 11.9 3 Oeste 11 Oeste 0 -- -- 97
2021-02-10 19:00:00 12.2 8 Oeste 18 Oeste 0 -- -- 95
2021-02-10 18:00:00 12.8 12 Oeste 22 Oeste 0 -- -- 92
2021-02-10 17:00:00 13.2 13 Oeste 24 Oeste 0 -- -- 90
2021-02-10 16:00:00 13.1 12 Oeste 26 Oeste 0 -- -- 91
2021-02-10 15:00:00 12.5 10 Noroeste 28 Oeste 0 -- -- 91
2021-02-10 14:00:00 12.5 20 Oeste 34 Oeste 0 -- -- 93
2021-02-10 13:00:00 11.6 21 Oeste 35 Oeste 0 -- -- 96
2021-02-10 12:00:00 11.1 13 Oeste 28 Oeste 0.2 -- -- 97
2021-02-10 11:00:00 10.5 16 Oeste 28 Oeste 0.2 -- -- 97
2021-02-10 10:00:00 10.1 13 Oeste 30 Oeste 0.6 -- -- 97
2021-02-10 09:00:00 9.7 15 Noroeste 30 Oeste 0.4 -- -- 97
2021-02-10 08:00:00 9.6 20 Oeste 30 Oeste 1 -- -- 97
2021-02-10 07:00:00 9.5 16 Oeste 57 Oeste 0.6 -- -- 97
2021-02-10 06:00:00 10 23 Oeste 39 Oeste 1.8 -- -- 96
2021-02-10 05:00:00 9.8 18 Sudoeste 42 Oeste 0.6 -- -- 95
2021-02-10 04:00:00 9.3 18 Sudoeste 41 Oeste 0 -- -- 93
2021-02-10 03:00:00 9.2 19 Sudoeste 41 Sudoeste 0 -- -- 91
2021-02-10 02:00:00 9.2 11 Oeste 40 Oeste 0 -- -- 89
2021-02-10 01:00:00 9.2 15 Sudoeste 54 Oeste 0 -- -- 90
2021-02-10 00:00:00 9.5 25 Oeste 57 Oeste 0.6 -- -- 90
2021-02-09 23:00:00 9.6 16 Sudoeste 28 Sudoeste 0 -- -- 94
2021-02-09 22:00:00 9.7 10 Oeste 44 Oeste 0.2 -- -- 93
2021-02-09 21:00:00 9.8 23 Oeste 49 Oeste 1.6 -- -- 95
2021-02-09 20:00:00 10.2 15 Sudoeste 42 Sudoeste 0 -- -- 93
2021-02-09 19:00:00 10.5 17 Oeste 43 Oeste 1.2 -- -- 94
2021-02-09 18:00:00 10.6 18 Oeste 40 Oeste 2 -- -- 95
2021-02-09 17:00:00 10.5 12 Oeste 47 Oeste 2 -- -- 95
2021-02-09 16:00:00 10.7 19 Sudoeste 55 Sudoeste 2.8 -- -- 94
2021-02-09 15:00:00 10.9 24 Sudoeste 64 Sudoeste 0.2 -- -- 92
2021-02-09 14:00:00 10.6 28 Sudoeste 52 Sudoeste 1.8 -- -- 92
2021-02-09 13:00:00 10.7 33 Sudoeste 54 Sudoeste 0.4 -- -- 92
2021-02-09 12:00:00 10.6 29 Sudoeste 43 Sudoeste 0 -- -- 91
2021-02-09 11:00:00 10 21 Sudoeste 40 Sur 0.2 -- -- 93
2021-02-09 10:00:00 9.3 16 Sur 33 Sur 0 -- -- 95
2021-02-09 09:00:00 8.8 14 Sur 30 Sudoeste 0 -- -- 94
2021-02-09 08:00:00 8.4 17 Sur 37 Sur 0 -- -- 95
2021-02-09 07:00:00 9.1 20 Sur 37 Sudoeste 0 -- -- 87
2021-02-09 06:00:00 8.7 6 Sudoeste 18 Sur 0 -- -- 90
2021-02-09 05:00:00 8.5 13 Sudoeste 26 Sudoeste 0 -- -- 91
2021-02-09 04:00:00 7.7 13 Sudoeste 22 Sudoeste 0 -- -- 93
2021-02-09 03:00:00 7.8 13 Sudoeste 21 Sudoeste 0 -- -- 90
2021-02-09 02:00:00 7.5 7 Sur 24 Sudoeste 0 -- -- 93
2021-02-09 01:00:00 7.7 17 Sudoeste 28 Oeste 0 -- -- 93
2021-02-09 00:00:00 8 11 Sudoeste 31 Oeste 0 -- -- 93
2021-02-08 23:00:00 8.8 15 Oeste 39 Oeste 0 -- -- 90
2021-02-08 22:00:00 7.8 4 Sudoeste 20 Oeste 0 -- -- 94
2021-02-08 21:00:00 8.8 11 Oeste 23 Sudoeste 0 -- -- 89
2021-02-08 20:00:00 9.8 21 Oeste 37 Oeste 0 -- -- 78
2021-02-08 19:00:00 10.2 10 Oeste 29 Oeste 0 -- -- 78
2021-02-08 18:00:00 10.2 19 Oeste 43 Oeste 0 -- -- 80
2021-02-08 17:00:00 10.9 35 Oeste 59 Oeste 0 -- -- 80
2021-02-08 16:00:00 12.1 35 Oeste 52 Oeste 0 -- -- 65
2021-02-08 15:00:00 11.7 27 Oeste 50 Oeste 0 -- -- 71
2021-02-08 14:00:00 10.9 33 Oeste 50 Oeste 0 -- -- 75
2021-02-08 13:00:00 9.7 28 Oeste 42 Oeste 0.6 -- -- 84
2021-02-08 12:00:00 9.1 30 Oeste 50 Oeste 0 -- -- 88
2021-02-08 11:00:00 8.5 15 Sudoeste 42 Oeste 0 -- -- 90
2021-02-08 10:00:00 7.9 24 Oeste 42 Oeste 0 -- -- 89
2021-02-08 09:00:00 7.7 25 Oeste 39 Oeste 0 -- -- 93
2021-02-08 08:00:00 7.7 26 Oeste 46 Oeste 0 -- -- 92
2021-02-08 07:00:00 7.9 35 Oeste 51 Oeste 0.2 -- -- 90
2021-02-08 06:00:00 8.6 29 Oeste 69 Oeste 0.8 -- -- 92
2021-02-08 05:00:00 9.8 17 Sudoeste 38 Sur 3.4 -- -- 98
2021-02-08 04:00:00 9.3 20 Sur 39 Sur 1 -- -- 97
2021-02-08 03:00:00 8.7 19 Sur 39 Sur 0.2 -- -- 96
2021-02-08 02:00:00 8.4 12 Sur 37 Sur 0 -- -- 95
2021-02-08 01:00:00 8.1 17 Sur 31 Sur 0 -- -- 94
2021-02-08 00:00:00 7.9 16 Sur 29 Sudoeste 0 -- -- 93
2021-02-07 23:00:00 8.2 20 Sudoeste 33 Sudoeste 0 -- -- 89
2021-02-07 22:00:00 8.1 17 Sudoeste 29 Sudoeste 0 -- -- 90
2021-02-07 21:00:00 7.8 21 Sudoeste 31 Sudoeste 0 -- -- 90
2021-02-07 20:00:00 8 15 Oeste 33 Sudoeste 0 -- -- 85
2021-02-07 19:00:00 8 9 Oeste 27 Oeste 0 -- -- 82
2021-02-07 18:00:00 8 18 Oeste 38 Oeste 0 -- -- 81
2021-02-07 17:00:00 7.9 26 Oeste 36 Oeste 0 -- -- 78
2021-02-07 16:00:00 7.9 25 Oeste 41 Oeste 0 -- -- 76
2021-02-07 15:00:00 8.1 30 Oeste 44 Oeste 0 -- -- 77
2021-02-07 14:00:00 8.7 26 Oeste 36 Oeste 0 -- -- 74
2021-02-07 13:00:00 8.7 18 Oeste 30 Oeste 0 -- -- 84
2021-02-07 12:00:00 7.3 14 Oeste 25 Oeste 0 -- -- 89
2021-02-07 11:00:00 6.3 16 Oeste 31 Oeste 0 -- -- 94
2021-02-07 10:00:00 5.9 14 Oeste 31 Oeste 0 -- -- 96
2021-02-07 09:00:00 5.6 17 Oeste 28 Oeste 0 -- -- 95
2021-02-07 08:00:00 6.2 15 Oeste 28 Oeste 0 -- -- 95
2021-02-07 07:00:00 6.6 12 Oeste 24 Oeste 0 -- -- 94
2021-02-07 06:00:00 7.6 13 Noroeste 26 Oeste 0 -- -- 95
2021-02-07 05:00:00 7.9 4 Noroeste 16 Oeste 0 -- -- 96
2021-02-07 04:00:00 7.8 10 Oeste 19 Oeste 0 -- -- 98
2021-02-07 03:00:00 7.5 4 Oeste 6 Oeste 0 -- -- 97
2021-02-07 02:00:00 7.6 3 Oeste 12 Oeste 0 -- -- 97
2021-02-07 01:00:00 7.5 6 Noroeste 14 Oeste 0 -- -- 97
2021-02-07 00:00:00 6.9 0 Calma 8 Oeste 0 -- -- 98
2021-02-06 23:00:00 7.5 3 Noroeste 9 Oeste 0 -- -- 96
2021-02-06 22:00:00 7.8 8 Oeste 11 Oeste 0 -- -- 95
2021-02-06 21:00:00 8 5 Oeste 7 Oeste 0.2 -- -- 95
2021-02-06 20:00:00 8.2 6 Noroeste 14 Noroeste 0 -- -- 94
2021-02-06 19:00:00 8.5 4 Noroeste 14 Oeste 0 -- -- 93
2021-02-06 18:00:00 8.8 12 Oeste 31 Oeste 0 -- -- 93
2021-02-06 17:00:00 9.4 8 Oeste 27 Sudoeste 0.6 -- -- 93
2021-02-06 16:00:00 10.2 9 Sudoeste 12 Sudoeste 0 -- -- 87
2021-02-06 15:00:00 9.3 9 Sudoeste 24 Oeste 0.6 -- -- 93
2021-02-06 14:00:00 9.5 13 Oeste 24 Oeste 0 -- -- 90
2021-02-06 13:00:00 9.5 9 Sudoeste 24 Sudoeste 0 -- -- 89
2021-02-06 12:00:00 9 12 Sudoeste 25 Oeste 0 -- -- 93
2021-02-06 11:00:00 8.2 12 Sudoeste 28 Sudoeste 0 -- -- 95
2021-02-06 10:00:00 7.8 8 Sur 20 Sudoeste 0.6 -- -- 98
2021-02-06 09:00:00 7.7 10 Sur 22 Sudoeste 0 -- -- 96
2021-02-06 08:00:00 7.7 13 Sudoeste 21 Sudoeste 0 -- -- 95
2021-02-06 07:00:00 7.9 12 Sudoeste 25 Sudoeste 0 -- -- 95
2021-02-06 06:00:00 8.5 12 Sur 25 Sur 0.4 -- -- 97
2021-02-06 05:00:00 8.8 9 Sur 20 Sur 0 -- -- 97
2021-02-06 04:00:00 8.8 12 Sudeste 22 Sur 0 -- -- 96
2021-02-06 03:00:00 8.8 10 Sudeste 19 Sudeste 0 -- -- 96
2021-02-06 02:00:00 8.8 10 Sudeste 19 Sur 0.2 -- -- 94
2021-02-06 01:00:00 9.1 11 Sur 21 Sur 0 -- -- 94
2021-02-06 00:00:00 9.2 9 Sudeste 23 Sur 0.6 -- -- 96
2021-02-05 23:00:00 9.2 9 Sudeste 23 Sudeste 0 -- -- 96
2021-02-05 22:00:00 9.3 12 Sudeste 26 Sur 0 -- -- 95
2021-02-05 21:00:00 9.3 12 Sudeste 32 Sudeste 0 -- -- 94
2021-02-05 20:00:00 9.5 17 Sur 32 Sur 0 -- -- 94
2021-02-05 19:00:00 9.6 11 Sudeste 21 Sudeste 0.4 -- -- 90
2021-02-05 18:00:00 9.4 3 Este 9 Noroeste 1.2 -- -- 97
2021-02-05 17:00:00 9.3 10 Oeste 33 Sudoeste 3.8 -- -- 96
2021-02-05 16:00:00 11.2 7 Nordeste 16 Norte 0 -- -- 85
2021-02-05 15:00:00 10.7 9 Norte 29 Oeste 0 -- -- 92
2021-02-05 14:00:00 11.5 9 Norte 19 Norte 0.4 -- -- 87
2021-02-05 13:00:00 12.4 8 Noroeste 26 Nordeste 0 -- -- 77
2021-02-05 12:00:00 12.4 16 Norte 28 Norte 0 -- -- 81
2021-02-05 11:00:00 11.3 7 Norte 21 Norte 0 -- -- 90
2021-02-05 10:00:00 10.3 9 Noroeste 19 Norte 0 -- -- 91
2021-02-05 09:00:00 9.8 5 Noroeste 16 Noroeste 0 -- -- 91
2021-02-05 08:00:00 10.5 13 Noroeste 18 Noroeste 0 -- -- 88
2021-02-05 07:00:00 10.3 9 Noroeste 17 Noroeste 0 -- -- 88
2021-02-05 06:00:00 8.7 7 Noroeste 14 Oeste 0 -- -- 97
2021-02-05 05:00:00 9.7 0 Calma 18 Sudoeste 0 -- -- 94
2021-02-05 04:00:00 8.6 0 Calma 5 Oeste 0 -- -- 98
2021-02-05 03:00:00 8.8 0 Calma 7 Oeste 0 -- -- 98
2021-02-05 02:00:00 9 2 Norte 14 Oeste 0 -- -- 97
2021-02-05 01:00:00 9.1 0 Calma 6 Nordeste 0 -- -- 98
2021-02-05 00:00:00 9 7 Oeste 10 Oeste 0 -- -- 98
2021-02-04 23:00:00 8.4 4 Oeste 7 Oeste 0 -- -- 98
2021-02-04 22:00:00 8.2 0 Calma 5 Noroeste 0 -- -- 96
2021-02-04 21:00:00 8.9 3 Noroeste 6 Noroeste 0 -- -- 96
2021-02-04 20:00:00 9.3 0 Calma 5 Noroeste 0 -- -- 93
2021-02-04 19:00:00 10.6 5 Oeste 13 Sur 0 -- -- 92
2021-02-04 18:00:00 12.8 10 Sudoeste 18 Sudoeste 0 -- -- 83
2021-02-04 17:00:00 13.4 11 Sur 25 Sur 0 -- -- 78
2021-02-04 16:00:00 13.6 14 Sur 32 Sur 0 -- -- 75
2021-02-04 15:00:00 13.8 18 Sur 38 Sur 0 -- -- 73
2021-02-04 14:00:00 13.2 15 Sur 39 Sur 0 -- -- 78
2021-02-04 13:00:00 12.2 18 Sur 31 Sur 0 -- -- 81
2021-02-04 12:00:00 12 20 Sur 32 Sur 0 -- -- 84
2021-02-04 11:00:00 10.6 15 Sur 24 Sur 0 -- -- 88
2021-02-04 10:00:00 10 9 Sudeste 21 Sudeste 0 -- -- 96
2021-02-04 09:00:00 9.9 12 Sudeste 18 Sudeste 0 -- -- 96
2021-02-04 08:00:00 10 10 Sudeste 20 Este 0 -- -- 96
2021-02-04 07:00:00 10.4 10 Sudeste 18 Sudeste 0 -- -- 93
2021-02-04 06:00:00 10.5 11 Sudeste 17 Sudeste 0 -- -- 93
2021-02-04 05:00:00 10.6 13 Sudeste 23 Sudeste 0 -- -- 93
2021-02-04 04:00:00 10.3 4 Sudeste 8 Sudeste 0 -- -- 95
2021-02-04 03:00:00 10.5 0 Calma 7 Este 0 -- -- 94
2021-02-04 02:00:00 10.5 4 Sudeste 10 Sudeste 0 -- -- 93
2021-02-04 01:00:00 10.8 8 Sur 14 Sudeste 0 -- -- 91
2021-02-04 00:00:00 10.9 9 Sur 15 Sudoeste 0 -- -- 91
2021-02-03 23:00:00 10.9 7 Sur 19 Sudoeste 0 -- -- 91
2021-02-03 22:00:00 11 12 Sur 23 Sur 0 -- -- 90
2021-02-03 21:00:00 11 12 Sur 25 Sudoeste 0 -- -- 89
2021-02-03 20:00:00 11.2 5 Sudeste 16 Sur 0 -- -- 88
2021-02-03 19:00:00 11.8 9 Sur 21 Sur 0 -- -- 86
2021-02-03 18:00:00 12.9 14 Sur 28 Sur 0 -- -- 81
2021-02-03 17:00:00 13.1 19 Sudoeste 29 Sur 0 -- -- 82
2021-02-03 16:00:00 13.5 19 Sur 26 Sur 0 -- -- 79
2021-02-03 15:00:00 13.2 16 Sur 25 Sur 0 -- -- 79
2021-02-03 14:00:00 13.6 14 Sur 23 Sur 0 -- -- 79
2021-02-03 13:00:00 13.5 14 Sur 23 Sur 0 -- -- 78
2021-02-03 12:00:00 12.3 13 Sur 23 Sudoeste 0 -- -- 84
2021-02-03 11:00:00 11.2 11 Sur 21 Sur 0 -- -- 85
2021-02-03 10:00:00 9.9 12 Sur 23 Sur 0 -- -- 91
2021-02-03 09:00:00 9.2 11 Sur 21 Sur 0 -- -- 91
2021-02-03 08:00:00 8.8 4 Sur 22 Sudeste 0 -- -- 90
2021-02-03 07:00:00 9.4 8 Sur 17 Sur 0 -- -- 93
2021-02-03 06:00:00 9.4 3 Sudoeste 8 Sudoeste 0 -- -- 96
2021-02-03 05:00:00 9 3 Sudoeste 10 Sudoeste 0 -- -- 94
2021-02-03 04:00:00 10.1 5 Sudoeste 18 Oeste 0 -- -- 92
2021-02-03 03:00:00 10.6 11 Sudoeste 23 Sur 0 -- -- 92
2021-02-03 02:00:00 10.8 10 Sur 22 Sudoeste 0 -- -- 92
2021-02-03 01:00:00 10.7 7 Sur 21 Sur 0 -- -- 93
2021-02-03 00:00:00 10.3 10 Sudoeste 16 Sur 0 -- -- 95
2021-02-02 23:00:00 10 7 Sur 12 Sudoeste 0 -- -- 94
2021-02-02 22:00:00 10.2 4 Sudoeste 8 Sudoeste 0 -- -- 94
2021-02-02 21:00:00 10.7 5 Sudoeste 13 Sur 0 -- -- 93
2021-02-02 20:00:00 11.6 7 Sur 17 Sur 0 -- -- 90
2021-02-02 19:00:00 12.6 8 Sur 18 Sur 0 -- -- 87
2021-02-02 18:00:00 13.2 7 Sur 17 Sur 0 -- -- 83
2021-02-02 17:00:00 13.8 7 Sudoeste 19 Sudoeste 0.2 -- -- 82
2021-02-02 16:00:00 -- -- -- -- -- -- -- -- --
2021-02-02 15:00:00 12.6 8 Sur 13 Sudeste 0 -- -- 85
2021-02-02 14:00:00 12.1 6 Sur 14 Sur 0 -- -- 89
2021-02-02 13:00:00 11.6 7 Sur 14 Sur 0 -- -- 90
2021-02-02 12:00:00 10.9 8 Sur 12 Sur 0 -- -- 92
2021-02-02 11:00:00 10.4 6 Sur 15 Sur 0 -- -- 97
2021-02-02 10:00:00 9.4 9 Sur 17 Sur 0 -- -- 100
2021-02-02 09:00:00 9.1 8 Sur 13 Sur 0.2 -- -- 100
2021-02-02 08:00:00 8.3 0 Calma 4 Noroeste 0 -- -- 100
2021-02-02 07:00:00 7.9 0 Calma 5 Noroeste 0 -- -- 100
2021-02-02 06:00:00 7.5 3 Noroeste 5 Oeste 0 -- -- 99
2021-02-02 05:00:00 7.2 0 Calma 3 Este 0 -- -- 99
2021-02-02 04:00:00 6.7 0 Calma 8 Oeste 0 -- -- 99
2021-02-02 03:00:00 7.7 4 Noroeste 12 Oeste 0 -- -- 100
2021-02-02 02:00:00 6.6 0 Calma 5 Oeste 0 -- -- 98
2021-02-02 01:00:00 6.5 2 Oeste 6 Sudoeste 0 -- -- 99
2021-02-02 00:00:00 6.1 0 Calma 5 Noroeste 0 -- -- 98
2021-02-01 23:00:00 6.5 3 Oeste 9 Sudoeste 0 -- -- 96
2021-02-01 22:00:00 7.9 5 Sur 16 Oeste 0 -- -- 92
2021-02-01 21:00:00 9.1 6 Oeste 18 Oeste 0 -- -- 90
2021-02-01 20:00:00 9.1 9 Oeste 19 Oeste 0 -- -- 97
2021-02-01 19:00:00 10.4 6 Oeste 15 Noroeste 0 -- -- 87
2021-02-01 18:00:00 12.5 10 Oeste 24 Noroeste 0 -- -- 81
2021-02-01 17:00:00 13.5 17 Noroeste 28 Oeste 0 -- -- 76
2021-02-01 16:00:00 13.7 19 Oeste 28 Oeste 0 -- -- 77
2021-02-01 15:00:00 13.2 19 Oeste 30 Oeste 0 -- -- 81
2021-02-01 14:00:00 13.2 19 Oeste 32 Oeste 0 -- -- 80
2021-02-01 13:00:00 13.1 21 Oeste 31 Oeste 0 -- -- 80
2021-02-01 12:00:00 11.6 21 Oeste 34 Oeste 0 -- -- 84
2021-02-01 11:00:00 11 24 Oeste 39 Oeste 0 -- -- 86
2021-02-01 10:00:00 10.4 18 Oeste 30 Oeste 0 -- -- 88
2021-02-01 09:00:00 10.3 10 Oeste 22 Oeste 0 -- -- 89
2021-02-01 08:00:00 10.3 8 Noroeste 31 Noroeste 0 -- -- 89
2021-02-01 07:00:00 10.4 15 Noroeste 41 Oeste 0 -- -- 90
2021-02-01 06:00:00 10.7 27 Oeste 45 Oeste 0 -- -- 92
2021-02-01 05:00:00 10.8 22 Oeste 44 Oeste 0 -- -- 94
2021-02-01 04:00:00 11.3 30 Oeste 50 Oeste 0 -- -- 91
2021-02-01 03:00:00 11.7 22 Oeste 48 Oeste 0 -- -- 91
2021-02-01 02:00:00 11.9 36 Oeste 58 Oeste 0 -- -- 91
2021-02-01 01:00:00 12.4 35 Oeste 53 Oeste 0.2 -- -- 93
2021-02-01 00:00:00 12.5 30 Oeste 49 Noroeste 0 -- -- 94
2021-01-31 23:00:00 12.2 30 Oeste 45 Oeste 0.4 -- -- 94
2021-01-31 22:00:00 12.5 19 Oeste 39 Oeste 0.2 -- -- 96
2021-01-31 21:00:00 12.3 17 Oeste 35 Oeste 1 -- -- 97
2021-01-31 20:00:00 12.3 10 Oeste 41 Noroeste 0 -- -- 95
2021-01-31 19:00:00 12.5 19 Oeste 44 Oeste 0 -- -- 95
2021-01-31 18:00:00 12.8 16 Oeste 41 Oeste 0 -- -- 93
2021-01-31 17:00:00 12.6 19 Oeste 42 Oeste 0 -- -- 92
2021-01-31 16:00:00 11.8 22 Oeste 39 Oeste 0.2 -- -- 94
2021-01-31 15:00:00 11.4 12 Oeste 38 Oeste 0 -- -- 95
2021-01-31 14:00:00 10.8 23 Oeste 45 Oeste 0.2 -- -- 96
2021-01-31 13:00:00 10.9 27 Oeste 46 Oeste 0 -- -- 93
2021-01-31 12:00:00 11 25 Oeste 42 Oeste 0 -- -- 87
2021-01-31 11:00:00 10.2 26 Oeste 43 Oeste 0 -- -- 92
2021-01-31 10:00:00 9.6 25 Oeste 42 Oeste 0 -- -- 95
2021-01-31 09:00:00 9.3 30 Oeste 43 Oeste 0.2 -- -- 96
2021-01-31 08:00:00 9.5 23 Noroeste 44 Oeste 0 -- -- 91
2021-01-31 07:00:00 9 30 Oeste 52 Oeste 0 -- -- 92
2021-01-31 06:00:00 8.4 35 Oeste 56 Oeste 0 -- -- 90
2021-01-31 05:00:00 8.2 27 Oeste 50 Oeste 0 -- -- 89
2021-01-31 04:00:00 8.2 28 Oeste 42 Oeste 0 -- -- 90
2021-01-31 03:00:00 8.4 18 Oeste 41 Oeste 0 -- -- 89
2021-01-31 02:00:00 8.5 14 Noroeste 34 Oeste 0 -- -- 86
2021-01-31 01:00:00 8.7 13 Oeste 33 Oeste 0 -- -- 87
2021-01-31 00:00:00 8.9 26 Oeste 45 Oeste 0 -- -- 86
2021-01-30 23:00:00 8.5 21 Oeste 36 Oeste 0 -- -- 85
2021-01-30 22:00:00 8.5 19 Oeste 42 Oeste 0 -- -- 83
2021-01-30 21:00:00 8.7 22 Oeste 35 Oeste 0 -- -- 80
2021-01-30 20:00:00 9.5 18 Oeste 37 Oeste 0 -- -- 76
2021-01-30 19:00:00 10.5 19 Noroeste 40 Oeste 0 -- -- 70
2021-01-30 18:00:00 12 22 Noroeste 47 Oeste 0 -- -- 71
2021-01-30 17:00:00 12.2 31 Oeste 51 Oeste 0 -- -- 73
2021-01-30 16:00:00 12.4 35 Oeste 52 Oeste 0 -- -- 69
2021-01-30 15:00:00 12.1 32 Oeste 47 Oeste 0 -- -- 73
2021-01-30 14:00:00 12.1 31 Oeste 46 Oeste 0 -- -- 71
2021-01-30 13:00:00 12 33 Oeste 46 Oeste 0 -- -- 74
2021-01-30 12:00:00 11.8 27 Oeste 45 Oeste 0 -- -- 81
2021-01-30 11:00:00 11.2 24 Oeste 35 Oeste 0 -- -- 88
2021-01-30 10:00:00 10.8 17 Oeste 32 Noroeste 0 -- -- 92
2021-01-30 09:00:00 11 23 Oeste 40 Oeste 0.8 -- -- 93
2021-01-30 08:00:00 11 12 Oeste 32 Sudoeste 0.4 -- -- 97
2021-01-30 07:00:00 10.7 10 Oeste 40 Sudoeste 0 -- -- 97
2021-01-30 06:00:00 10.7 9 Oeste 22 Sudoeste 0 -- -- 94
2021-01-30 05:00:00 10.3 9 Sur 18 Sur 0 -- -- 96
2021-01-30 04:00:00 10.2 11 Sudoeste 25 Sudoeste 0 -- -- 97
2021-01-30 03:00:00 10.1 18 Sudoeste 25 Sur 0 -- -- 98
2021-01-30 02:00:00 10.8 17 Sur 27 Sudoeste 0 -- -- 98
2021-01-30 01:00:00 11.3 16 Sudoeste 23 Sudoeste 0 -- -- 97
2021-01-30 00:00:00 11.5 8 Sudoeste 24 Oeste 0 -- -- 100